Time;durP1;ratioP1;P1;durP2;ratioP2;P2;SDS_P1;SDS_P2;PMS_P1;PMS_P2;Temp;Humidity;BMP_temperature;BMP_pressure;BME280_temperature;BME280_humidity;BME280_pressure;Samples;Min_cycle;Max_cycle;Signal;HPM_P1;HPM_P2
2024/02/10 00:01:34;;;;;;;12.20;10.93;;;;;;;5.39;100.00;98871.19;6136794;28;20545;-67
2024/02/10 00:04:56;;;;;;;11.47;10.37;;;;;;;5.32;100.00;98867.44;6145172;28;20241;-67
2024/02/10 00:08:17;;;;;;;12.37;11.07;;;;;;;5.38;100.00;98871.38;6142774;28;20251;-65
2024/02/10 00:11:39;;;;;;;11.07;10.03;;;;;;;5.39;100.00;98868.53;6134720;28;20270;-67
2024/02/10 00:15:01;;;;;;;11.03;9.80;;;;;;;5.40;100.00;98864.03;6148650;28;20235;-67
2024/02/10 00:18:23;;;;;;;12.50;11.20;;;;;;;5.37;100.00;98861.66;6141408;28;20234;-67
2024/02/10 00:21:45;;;;;;;11.80;10.60;;;;;;;5.41;100.00;98866.53;6126667;28;20644;-68
2024/02/10 00:25:09;;;;;;;10.60;9.47;;;;;;;5.43;100.00;98867.22;6129743;28;20310;-69
2024/02/10 00:28:49;;;;;;;11.93;10.47;;;;;;;5.39;100.00;98865.88;6126256;28;20247;-68
2024/02/10 00:32:10;;;;;;;11.60;10.53;;;;;;;5.35;100.00;98860.97;6129087;28;20223;-68
2024/02/10 00:35:33;;;;;;;12.37;11.10;;;;;;;5.51;100.00;98861.09;6139906;28;20262;-68
2024/02/10 00:38:54;;;;;;;11.77;10.67;;;;;;;5.39;100.00;98863.19;6149987;28;20247;-67
2024/02/10 00:42:17;;;;;;;12.03;10.77;;;;;;;5.39;100.00;98863.19;6139687;28;20325;-68
2024/02/10 00:45:40;;;;;;;12.43;11.13;;;;;;;5.44;100.00;98854.72;6108564;28;20247;-68
2024/02/10 00:49:00;;;;;;;12.07;10.87;;;;;;;5.50;100.00;98862.97;6146937;28;20238;-67
2024/02/10 00:52:21;;;;;;;11.67;10.47;;;;;;;5.53;100.00;98859.13;6142815;28;20233;-66
2024/02/10 00:55:42;;;;;;;11.13;10.13;;;;;;;5.55;100.00;98849.13;6144871;28;20235;-67
2024/02/10 00:59:03;;;;;;;11.33;9.47;;;;;;;5.65;100.00;98852.56;6149342;28;20227;-67
2024/02/10 01:02:25;;;;;;;12.00;10.87;;;;;;;5.69;100.00;98861.94;6139379;28;20238;-68
2024/02/10 01:05:46;;;;;;;12.30;10.93;;;;;;;5.59;100.00;98874.56;6143085;28;20605;-68
2024/02/10 01:09:11;;;;;;;12.23;11.13;;;;;;;5.63;100.00;98882.09;6150865;28;20243;-66
2024/02/10 01:12:32;;;;;;;12.03;10.53;;;;;;;5.54;100.00;98880.38;6143053;28;20321;-68
2024/02/10 01:15:54;;;;;;;12.70;11.40;;;;;;;5.57;100.00;98872.03;6131728;28;20234;-67
2024/02/10 01:19:19;;;;;;;12.53;11.23;;;;;;;5.62;100.00;98874.25;6148028;28;20239;-67
2024/02/10 01:22:41;;;;;;;12.33;11.10;;;;;;;5.59;100.00;98875.38;6136316;28;20251;-67
2024/02/10 01:26:02;;;;;;;12.37;10.93;;;;;;;5.54;100.00;98874.19;6141311;28;20230;-67
2024/02/10 01:29:24;;;;;;;11.37;10.33;;;;;;;5.60;100.00;98878.91;6148962;28;20227;-67
2024/02/10 01:32:45;;;;;;;10.50;9.50;;;;;;;5.59;100.00;98866.56;6140856;28;20239;-68
2024/02/10 01:36:09;;;;;;;12.20;10.83;;;;;;;5.54;100.00;98875.03;6131881;28;20227;-68
2024/02/10 01:39:29;;;;;;;9.83;9.03;;;;;;;5.48;100.00;98875.66;6143751;28;20608;-67
2024/02/10 01:42:50;;;;;;;10.97;9.97;;;;;;;5.55;100.00;98873.16;6141482;28;20238;-67
2024/02/10 01:46:13;;;;;;;12.63;11.43;;;;;;;5.58;100.00;98876.41;6139204;28;20234;-67
2024/02/10 01:49:34;;;;;;;12.33;11.03;;;;;;;5.66;100.00;98879.13;6144508;28;20270;-67
2024/02/10 01:52:57;;;;;;;11.80;10.73;;;;;;;5.56;100.00;98888.22;6122118;28;20316;-68
2024/02/10 01:56:19;;;;;;;10.37;9.37;;;;;;;5.62;100.00;98895.63;6117730;28;20559;-67
2024/02/10 01:59:40;;;;;;;10.93;9.93;;;;;;;5.76;100.00;98889.72;6138268;28;20263;-68
2024/02/10 02:03:01;;;;;;;15.73;10.90;;;;;;;5.77;100.00;98880.72;6125473;28;20231;-68
2024/02/10 02:06:22;;;;;;;11.33;9.97;;;;;;;5.78;100.00;98881.56;6140873;28;20234;-67
2024/02/10 02:09:45;;;;;;;10.87;9.77;;;;;;;5.74;100.00;98875.66;6143519;28;20262;-67
2024/02/10 02:13:06;;;;;;;10.53;9.43;;;;;;;5.73;100.00;98889.19;6144663;28;20238;-67
2024/02/10 02:16:28;;;;;;;12.03;10.77;;;;;;;5.69;100.00;98889.50;6133001;28;20227;-68
2024/02/10 02:19:49;;;;;;;13.37;11.97;;;;;;;5.68;100.00;98887.00;6142629;28;20975;-67
2024/02/10 02:23:18;;;;;;;12.03;10.77;;;;;;;5.61;100.00;98888.63;6139314;28;20227;-68
2024/02/10 02:26:41;;;;;;;11.70;10.50;;;;;;;5.61;100.00;98876.06;6136372;28;20321;-68
2024/02/10 02:30:02;;;;;;;12.97;11.47;;;;;;;5.72;100.00;98885.69;6148775;28;20520;-67
2024/02/10 02:33:23;;;;;;;14.43;13.10;;;;;;;5.60;100.00;98882.44;6140894;28;20660;-67
2024/02/10 02:36:43;;;;;;;13.20;11.60;;;;;;;5.59;100.00;98888.75;6135613;28;20616;-68
2024/02/10 02:40:08;;;;;;;11.20;10.00;;;;;;;5.55;100.00;98882.03;6142098;28;20259;-67
2024/02/10 02:43:29;;;;;;;11.10;9.97;;;;;;;5.66;100.00;98870.25;6147675;28;20238;-66
2024/02/10 02:46:50;;;;;;;11.37;10.07;;;;;;;5.67;100.00;98877.31;6125710;28;20255;-66
2024/02/10 02:50:14;;;;;;;12.20;10.90;;;;;;;5.77;100.00;98875.38;6137146;28;20234;-67
2024/02/10 02:53:35;;;;;;;11.80;10.67;;;;;;;5.77;100.00;98875.38;6141758;28;20318;-67
2024/02/10 02:57:00;;;;;;;12.20;10.90;;;;;;;5.67;100.00;98888.00;6144647;28;20238;-68
2024/02/10 03:00:21;;;;;;;13.60;10.87;;;;;;;5.65;100.00;98887.31;6126771;28;20239;-68
2024/02/10 03:03:44;;;;;;;15.17;13.30;;;;;;;5.66;100.00;98865.75;6133428;28;20581;-67
2024/02/10 03:07:05;;;;;;;13.03;11.63;;;;;;;5.69;100.00;98864.63;6141718;28;20227;-68
2024/02/10 03:10:28;;;;;;;13.33;12.03;;;;;;;5.54;100.00;98864.34;6136401;28;20269;-68
2024/02/10 03:13:50;;;;;;;12.10;10.90;;;;;;;5.51;100.00;98853.94;6137844;28;20594;-68
2024/02/10 03:17:13;;;;;;;14.73;13.30;;;;;;;5.45;100.00;98853.72;6135274;28;20689;-67
2024/02/10 03:20:35;;;;;;;11.77;10.60;;;;;;;5.39;100.00;98857.84;6116760;28;20243;-67
2024/02/10 03:24:03;;;;;;;13.07;11.83;;;;;;;5.53;100.00;98862.63;6144748;28;20235;-67
2024/02/10 03:27:24;;;;;;;13.17;11.80;;;;;;;5.56;100.00;98872.19;6139807;28;20230;-67
2024/02/10 03:30:47;;;;;;;13.43;12.07;;;;;;;5.57;100.00;98879.19;6131685;28;20226;-68
2024/02/10 03:34:08;;;;;;;14.57;13.00;;;;;;;5.57;100.00;98879.19;6144853;28;20239;-68
2024/02/10 03:37:31;;;;;;;12.03;10.83;;;;;;;5.63;100.00;98879.44;6143932;28;20230;-67
2024/02/10 03:40:52;;;;;;;15.03;13.57;;;;;;;5.60;100.00;98877.06;6136230;28;20235;-68
2024/02/10 03:44:13;;;;;;;17.63;13.90;;;;;;;5.68;100.00;98871.78;6136389;28;20227;-68
2024/02/10 03:47:35;;;;;;;16.23;14.10;;;;;;;5.74;100.00;98874.84;6133716;28;20238;-68
2024/02/10 03:50:56;;;;;;;14.27;12.30;;;;;;;5.77;100.00;98864.69;6139103;28;20250;-68
2024/02/10 03:54:17;;;;;;;14.70;13.07;;;;;;;5.85;100.00;98878.13;6144915;28;20313;-67
2024/02/10 03:57:38;;;;;;;15.53;13.93;;;;;;;5.80;100.00;98883.06;6143900;28;20235;-68
2024/02/10 04:00:59;;;;;;;14.30;12.80;;;;;;;5.75;100.00;98880.03;6131039;28;20842;-67
2024/02/10 04:04:21;;;;;;;15.03;13.40;;;;;;;5.72;100.00;98876.81;6131477;28;20230;-67
2024/02/10 04:07:49;;;;;;;18.30;16.43;;;;;;;5.71;100.00;98878.69;6121397;28;20308;-67
2024/02/10 04:11:12;;;;;;;15.43;13.13;;;;;;;5.67;100.00;98874.63;6118102;28;20234;-67
2024/02/10 04:14:33;;;;;;;14.57;13.17;;;;;;;5.69;100.00;98875.31;6146301;28;20534;-68
2024/02/10 04:17:55;;;;;;;16.20;14.50;;;;;;;5.74;100.00;98870.31;6132469;28;20254;-67
2024/02/10 04:21:18;;;;;;;19.63;17.57;;;;;;;5.65;100.00;98876.63;6136125;28;20354;-68
2024/02/10 04:24:39;;;;;;;13.03;11.77;;;;;;;5.64;100.00;98875.78;6142810;28;20313;-67
2024/02/10 04:28:02;;;;;;;18.23;15.93;;;;;;;5.56;100.00;98885.56;6134491;28;20230;-67
2024/02/10 04:31:23;;;;;;;17.63;15.73;;;;;;;5.65;100.00;98876.63;6101466;28;20325;-68
2024/02/10 04:34:45;;;;;;;20.10;16.13;;;;;;;5.64;100.00;98881.13;6146758;28;20227;-67
2024/02/10 04:38:08;;;;;;;17.77;15.30;;;;;;;5.60;100.00;98884.25;6139064;28;20266;-67
2024/02/10 04:41:29;;;;;;;17.57;15.87;;;;;;;5.51;100.00;98887.84;6138693;28;20242;-67
2024/02/10 04:44:52;;;;;;;18.93;16.97;;;;;;;5.60;100.00;98881.56;6145131;28;20223;-68
2024/02/10 04:48:13;;;;;;;16.93;15.17;;;;;;;5.65;100.00;98879.28;6132829;28;20230;-68
2024/02/10 04:51:35;;;;;;;20.57;16.20;;;;;;;5.50;100.00;98888.84;6133866;28;20301;-68
2024/02/10 04:54:57;;;;;;;19.23;16.90;;;;;;;5.50;100.00;98892.34;6142947;28;20222;-67
2024/02/10 04:58:19;;;;;;;18.13;16.10;;;;;;;5.57;100.00;98892.56;6144376;28;20243;-68
2024/02/10 05:01:40;;;;;;;18.07;14.57;;;;;;;5.59;100.00;98893.28;6129209;28;20235;-66
2024/02/10 05:05:01;;;;;;;18.17;16.17;;;;;;;5.71;100.00;98894.72;6143694;28;20683;-68
2024/02/10 05:08:21;;;;;;;19.03;15.87;;;;;;;5.81;100.00;98905.31;6146491;28;20228;-67
2024/02/10 05:11:46;;;;;;;23.80;16.03;;;;;;;5.84;100.00;98899.69;6137069;28;20228;-67
2024/02/10 05:15:09;;;;;;;23.30;16.53;;;;;;;5.81;100.00;98903.47;6143437;28;20234;-67
2024/02/10 05:18:30;;;;;;;16.17;14.23;;;;;;;5.89;100.00;98895.56;6146008;28;20469;-67
2024/02/10 05:21:51;;;;;;;20.43;16.87;;;;;;;5.98;100.00;98889.28;6131038;28;20234;-67
2024/02/10 05:25:13;;;;;;;16.33;14.60;;;;;;;5.97;100.00;98898.28;6138716;28;20224;-67
2024/02/10 05:28:35;;;;;;;17.50;15.13;;;;;;;5.87;100.00;98899.38;6143358;28;20318;-67
2024/02/10 05:31:58;;;;;;;20.57;18.10;;;;;;;5.84;100.00;98899.69;6122695;28;20532;-67
2024/02/10 05:35:19;;;;;;;18.73;16.73;;;;;;;5.87;100.00;98902.03;6134942;28;20235;-67
2024/02/10 05:38:40;;;;;;;20.27;15.63;;;;;;;5.83;100.00;98906.84;6118906;28;20689;-67
2024/02/10 05:42:02;;;;;;;17.30;15.43;;;;;;;5.74;100.00;98910.41;6145834;28;20243;-67
2024/02/10 05:45:24;;;;;;;16.53;14.83;;;;;;;5.89;100.00;98916.09;6136429;28;20227;-68
2024/02/10 05:48:46;;;;;;;17.17;15.37;;;;;;;5.93;100.00;98907.59;6115442;28;20234;-66
2024/02/10 05:52:09;;;;;;;18.03;16.13;;;;;;;5.91;100.00;98909.59;6133458;28;20314;-68
2024/02/10 05:55:31;;;;;;;16.93;15.03;;;;;;;5.79;100.00;98905.47;6137335;28;20246;-67
2024/02/10 05:58:52;;;;;;;20.80;16.77;;;;;;;5.87;100.00;98915.41;6138022;28;20273;-68
2024/02/10 06:02:16;;;;;;;18.70;16.60;;;;;;;5.98;100.00;98912.50;6124771;28;20264;-67
2024/02/10 06:05:39;;;;;;;19.73;17.73;;;;;;;5.94;100.00;98913.81;6138037;28;20747;-67
2024/02/10 06:08:59;;;;;;;20.00;15.47;;;;;;;5.86;100.00;98911.88;6144699;28;20223;-68
2024/02/10 06:12:20;;;;;;;18.53;16.00;;;;;;;5.90;100.00;98910.63;6138111;28;20222;-68
2024/02/10 06:15:41;;;;;;;17.80;16.10;;;;;;;5.70;100.00;98914.41;6115689;28;20317;-68
2024/02/10 06:19:04;;;;;;;18.10;16.30;;;;;;;5.82;100.00;98917.69;6147663;28;20238;-67
2024/02/10 06:22:26;;;;;;;15.00;13.20;;;;;;;5.83;100.00;98922.88;6132516;28;20234;-68
2024/02/10 06:25:47;;;;;;;16.83;15.20;;;;;;;5.78;100.00;98925.16;6139728;28;20258;-68
2024/02/10 06:29:08;;;;;;;20.57;16.93;;;;;;;5.83;100.00;98930.91;6143733;28;20243;-67
2024/02/10 06:32:34;;;;;;;18.50;15.70;;;;;;;5.79;100.00;98934.88;6130345;28;20262;-67
2024/02/10 06:35:58;;;;;;;18.07;15.27;;;;;;;6.00;100.00;98935.41;6134197;28;20326;-68
2024/02/10 06:39:20;;;;;;;18.50;16.53;;;;;;;6.07;100.00;98935.66;6149130;28;20223;-68
2024/02/10 06:42:42;;;;;;;15.90;14.10;;;;;;;6.02;100.00;98937.94;6139319;28;20230;-67
2024/02/10 06:46:07;;;;;;;19.23;16.53;;;;;;;5.99;100.00;98938.22;6138241;28;20258;-68
2024/02/10 06:49:30;;;;;;;17.20;15.50;;;;;;;5.93;100.00;98923.66;6142523;28;20234;-67
2024/02/10 06:52:53;;;;;;;18.67;15.80;;;;;;;5.85;100.00;98926.25;6141879;28;20833;-67
2024/02/10 06:56:14;;;;;;;17.23;15.27;;;;;;;5.87;100.00;98921.59;6136546;28;20644;-66
2024/02/10 06:59:38;;;;;;;17.57;15.80;;;;;;;6.04;100.00;98922.56;6146569;28;20222;-68
2024/02/10 07:03:03;;;;;;;17.63;15.33;;;;;;;6.09;100.00;98931.78;6124410;28;20258;-67
2024/02/10 07:06:28;;;;;;;20.30;15.93;;;;;;;5.97;100.00;98932.19;6136242;28;20223;-67
2024/02/10 07:09:50;;;;;;;17.40;15.57;;;;;;;6.05;100.00;98943.00;6145821;28;20275;-68
2024/02/10 07:13:11;;;;;;;15.37;13.77;;;;;;;6.14;100.00;98944.72;6142938;28;20238;-68
2024/02/10 07:16:34;;;;;;;16.30;14.60;;;;;;;6.03;100.00;98951.13;6124475;28;20237;-67
2024/02/10 07:19:54;;;;;;;16.83;15.03;;;;;;;6.18;100.00;98951.44;6142368;28;21945;-68
2024/02/10 07:23:15;;;;;;;14.90;13.40;;;;;;;6.36;100.00;98950.38;6141526;28;20313;-67
2024/02/10 07:26:38;;;;;;;15.20;13.70;;;;;;;6.33;100.00;98956.06;6137099;28;20230;-67
2024/02/10 07:29:59;;;;;;;15.60;14.10;;;;;;;6.22;100.00;98952.78;6145962;28;20260;-68
2024/02/10 07:33:21;;;;;;;19.57;15.57;;;;;;;6.18;100.00;98954.94;6133814;28;20327;-67
2024/02/10 07:36:42;;;;;;;15.20;13.70;;;;;;;6.31;100.00;98957.22;6116318;28;20680;-68
2024/02/10 07:40:04;;;;;;;15.10;13.60;;;;;;;6.37;100.00;98970.81;6139703;28;20235;-67
2024/02/10 07:43:27;;;;;;;17.03;15.23;;;;;;;6.28;100.00;98968.22;6139883;28;20376;-68
2024/02/10 07:46:48;;;;;;;15.03;12.93;;;;;;;6.42;100.00;98971.16;6128997;28;20234;-68
2024/02/10 07:50:11;;;;;;;16.37;14.63;;;;;;;6.40;100.00;98980.38;6134305;28;21498;-68
2024/02/10 07:53:32;;;;;;;16.03;14.33;;;;;;;6.49;100.00;98991.97;6147177;28;20676;-67
2024/02/10 07:56:54;;;;;;;15.50;13.90;;;;;;;6.57;100.00;99008.91;6124770;28;20256;-68
2024/02/10 08:00:18;;;;;;;16.10;14.00;;;;;;;6.58;100.00;98993.69;6123728;28;20230;-67
2024/02/10 08:03:39;;;;;;;17.23;14.87;;;;;;;6.53;100.00;99004.03;6135256;28;20239;-67
2024/02/10 08:07:00;;;;;;;16.87;13.23;;;;;;;6.56;100.00;99007.25;6130561;28;20838;-67
2024/02/10 08:10:21;;;;;;;14.10;12.30;;;;;;;6.65;100.00;99013.50;6136042;28;20330;-67
2024/02/10 08:13:42;;;;;;;15.73;12.73;;;;;;;6.72;100.00;99011.84;6147350;28;20231;-67
2024/02/10 08:17:07;;;;;;;14.17;12.67;;;;;;;6.77;100.00;99026.47;6136584;28;20226;-67
2024/02/10 08:20:28;;;;;;;13.70;12.40;;;;;;;6.81;100.00;99025.16;6141525;28;20238;-68
2024/02/10 08:23:52;;;;;;;14.80;13.33;;;;;;;6.83;100.00;99027.66;6115024;28;20235;-67
2024/02/10 08:27:15;;;;;;;14.13;12.43;;;;;;;6.87;100.00;99020.97;6139622;28;20231;-67
2024/02/10 08:30:36;;;;;;;13.00;11.70;;;;;;;6.89;100.00;99043.94;6135063;28;20231;-68
2024/02/10 08:33:58;;;;;;;12.90;11.60;;;;;;;6.90;100.00;99039.44;6145100;28;20562;-68
2024/02/10 08:37:20;;;;;;;13.67;12.37;;;;;;;6.86;100.00;99049.59;6139578;28;20331;-68
2024/02/10 08:40:41;;;;;;;18.33;13.50;;;;;;;6.93;100.00;99045.31;6135564;28;20238;-68
2024/02/10 08:44:03;;;;;;;15.20;12.73;;;;;;;6.90;100.00;99048.31;6147013;28;20234;-68
2024/02/10 08:47:27;;;;;;;14.57;12.23;;;;;;;7.03;100.00;99050.56;6134179;28;20222;-67
2024/02/10 08:50:50;;;;;;;15.43;12.83;;;;;;;7.02;100.00;99056.91;6127066;28;20261;-67
2024/02/10 08:54:12;;;;;;;18.20;12.73;;;;;;;6.97;100.00;99067.25;6140389;28;20346;-68
2024/02/10 08:57:35;;;;;;;13.60;11.17;;;;;;;6.98;100.00;99061.75;6141454;28;20229;-68
2024/02/10 09:00:57;;;;;;;16.77;13.23;;;;;;;7.06;100.00;99069.84;6136528;28;20230;-68
2024/02/10 09:04:18;;;;;;;18.53;14.73;;;;;;;7.06;100.00;99077.88;6140316;28;20243;-68
2024/02/10 09:07:40;;;;;;;18.57;13.60;;;;;;;7.04;100.00;99081.69;6133117;28;20230;-67
2024/02/10 09:11:01;;;;;;;17.17;12.90;;;;;;;6.98;100.00;99080.50;6138202;28;20235;-69
2024/02/10 09:14:23;;;;;;;15.27;12.37;;;;;;;6.96;100.00;99084.31;6146968;28;20246;-69
2024/02/10 09:17:44;;;;;;;15.87;14.00;;;;;;;6.99;100.00;99090.19;6133769;28;20234;-69
2024/02/10 09:21:05;;;;;;;17.90;12.70;;;;;;;7.08;100.00;99097.31;6116065;28;20230;-68
2024/02/10 09:24:27;;;;;;;15.20;13.60;;;;;;;7.14;100.00;99093.13;6139901;28;20254;-69
2024/02/10 09:27:48;;;;;;;15.47;12.23;;;;;;;7.23;100.00;99098.41;6139804;28;20784;-69
2024/02/10 09:31:13;;;;;;;17.27;13.40;;;;;;;7.19;100.00;99101.56;6143120;28;20222;-69
2024/02/10 09:34:34;;;;;;;16.93;13.07;;;;;;;7.26;100.00;99113.31;6150328;28;20227;-69
2024/02/10 09:37:55;;;;;;;17.17;14.60;;;;;;;7.34;100.00;99110.69;6126036;28;20239;-68
2024/02/10 09:41:18;;;;;;;14.90;12.73;;;;;;;7.36;100.00;99114.06;6146230;28;20337;-68
2024/02/10 09:44:40;;;;;;;16.57;14.60;;;;;;;7.31;100.00;99110.16;6145436;28;20265;-68
2024/02/10 09:48:04;;;;;;;17.30;15.50;;;;;;;7.46;100.00;99109.41;6140521;28;20243;-69
2024/02/10 09:51:24;;;;;;;17.80;14.50;;;;;;;7.53;100.00;99112.31;6135483;28;20230;-69
2024/02/10 09:54:46;;;;;;;20.23;15.17;;;;;;;7.59;100.00;99104.47;6120649;28;20227;-69
2024/02/10 09:58:09;;;;;;;15.23;12.80;;;;;;;7.53;100.00;99114.97;6144054;28;20234;-70
2024/02/10 10:01:32;;;;;;;15.83;12.23;;;;;;;7.61;100.00;99128.41;6130462;28;20609;-68
2024/02/10 10:04:53;;;;;;;16.27;13.13;;;;;;;7.69;100.00;99113.22;6146687;28;20242;-69
2024/02/10 10:08:14;;;;;;;15.13;13.17;;;;;;;7.65;100.00;99121.72;6149791;28;20777;-69
2024/02/10 10:11:39;;;;;;;20.60;15.40;;;;;;;7.78;100.00;99114.09;6140142;28;20235;-68
2024/02/10 10:15:01;;;;;;;16.70;13.10;;;;;;;7.78;100.00;99122.13;6140010;28;20601;-69
2024/02/10 10:18:23;;;;;;;15.77;13.30;;;;;;;7.82;100.00;99112.75;6147826;28;20636;-69
2024/02/10 10:21:48;;;;;;;18.13;14.77;;;;;;;7.71;100.00;99118.41;6147224;28;20235;-69
2024/02/10 10:25:09;;;;;;;21.30;14.60;;;;;;;7.81;100.00;99121.78;6143250;28;20329;-69
2024/02/10 10:28:31;;;;;;;14.77;13.23;;;;;;;7.94;100.00;99122.19;6143419;28;20228;-70
2024/02/10 10:31:56;;;;;;;17.73;14.73;;;;;;;7.90;100.00;99118.16;6132695;28;20231;-69
2024/02/10 10:35:19;;;;;;;19.47;17.10;;;;;;;8.01;100.00;99128.56;6142925;28;20223;-67
2024/02/10 10:38:42;;;;;;;14.27;11.70;;;;;;;9.18;100.00;99128.22;6143257;28;20253;-68
2024/02/10 10:42:04;;;;;;;22.17;19.40;;;;;;;10.33;100.00;99115.84;6138368;28;20245;-69
2024/02/10 10:45:26;;;;;;;26.07;20.63;;;;;;;10.94;100.00;99117.59;6135633;28;20673;-69
2024/02/10 10:48:48;;;;;;;19.87;15.83;;;;;;;10.48;100.00;99112.41;6143170;28;20317;-68
2024/02/10 10:52:13;;;;;;;21.80;14.83;;;;;;;11.11;100.00;99108.34;6136490;28;20238;-68
2024/02/10 10:55:37;;;;;;;16.63;12.87;;;;;;;10.65;100.00;99106.72;6140339;28;20230;-68
2024/02/10 10:59:04;;;;;;;15.23;13.30;;;;;;;9.86;100.00;99109.69;6146068;28;20239;-68
2024/02/10 11:02:28;;;;;;;19.83;14.47;;;;;;;9.30;100.00;99097.28;6122241;28;20309;-69
2024/02/10 11:05:51;;;;;;;19.40;13.97;;;;;;;9.03;100.00;99097.69;6140288;28;20640;-69
2024/02/10 11:09:16;;;;;;;16.30;14.50;;;;;;;8.77;100.00;99113.97;6143964;28;20321;-68
2024/02/10 11:12:37;;;;;;;13.73;11.33;;;;;;;8.73;100.00;99115.31;6134251;28;20259;-68
2024/02/10 11:16:04;;;;;;;16.87;13.20;;;;;;;8.47;100.00;99117.28;6135921;28;20249;-68
2024/02/10 11:19:29;;;;;;;18.00;13.30;;;;;;;8.53;100.00;99119.31;6143880;28;20223;-68
2024/02/10 11:22:51;;;;;;;17.77;14.93;;;;;;;8.63;100.00;99116.47;6135050;28;20234;-69
2024/02/10 11:26:13;;;;;;;15.93;13.97;;;;;;;8.72;100.00;99118.16;6137318;28;20238;-68
2024/02/10 11:29:34;;;;;;;18.27;13.00;;;;;;;8.70;100.00;99120.16;6146616;28;20238;-69
2024/02/10 11:32:54;;;;;;;18.20;14.70;;;;;;;8.76;100.00;99111.47;6101078;28;20230;-68
2024/02/10 11:36:15;;;;;;;18.33;15.33;;;;;;;8.66;100.00;99113.44;6126592;28;20230;-70
2024/02/10 11:39:37;;;;;;;17.83;14.30;;;;;;;8.56;100.00;99105.56;6143465;28;20234;-69
2024/02/10 11:42:59;;;;;;;21.27;14.40;;;;;;;8.60;100.00;99108.75;6138894;28;20235;-69
2024/02/10 11:46:20;;;;;;;16.37;13.33;;;;;;;8.61;100.00;99111.28;6133996;28;20238;-68
2024/02/10 11:49:43;;;;;;;20.03;15.30;;;;;;;8.54;100.00;99098.69;6130790;28;20639;-69
2024/02/10 11:53:04;;;;;;;22.43;15.60;;;;;;;8.54;100.00;99109.41;6116461;28;20250;-69
2024/02/10 11:56:33;;;;;;;20.27;16.83;;;;;;;8.73;100.00;99109.09;6140324;28;20226;-69
2024/02/10 11:59:54;;;;;;;16.23;14.50;;;;;;;8.69;100.00;99110.44;6145502;28;20227;-68
2024/02/10 12:03:20;;;;;;;19.33;15.47;;;;;;;8.61;100.00;99100.53;6140486;28;20230;-68
2024/02/10 12:06:41;;;;;;;17.07;15.27;;;;;;;8.71;100.00;99103.06;6135549;28;20257;-68
2024/02/10 12:10:04;;;;;;;18.17;14.83;;;;;;;8.68;100.00;99101.53;6146889;28;20318;-69
2024/02/10 12:13:27;;;;;;;18.10;15.53;;;;;;;8.48;100.00;99100.19;6148130;28;20223;-68
2024/02/10 12:16:48;;;;;;;19.23;14.43;;;;;;;8.45;100.00;99108.56;6129794;28;20509;-69
2024/02/10 12:20:12;;;;;;;16.97;13.30;;;;;;;8.54;100.00;99102.22;6142926;28;20243;-69
2024/02/10 12:23:33;;;;;;;18.57;13.40;;;;;;;8.61;100.00;99105.91;6148759;28;20235;-69
2024/02/10 12:26:54;;;;;;;17.37;15.37;;;;;;;8.58;100.00;99114.28;6136961;28;20243;-68
2024/02/10 12:30:18;;;;;;;18.13;14.07;;;;;;;8.71;100.00;99116.47;6129211;28;20675;-68
2024/02/10 12:33:42;;;;;;;17.67;12.93;;;;;;;8.57;100.00;99107.22;6139462;28;20222;-69
2024/02/10 12:37:04;;;;;;;16.00;13.83;;;;;;;8.61;100.00;99122.03;6132609;28;20231;-69
2024/02/10 12:40:26;;;;;;;15.90;12.77;;;;;;;8.55;100.00;99111.13;6142488;28;20485;-69
2024/02/10 12:43:48;;;;;;;18.50;12.60;;;;;;;8.60;100.00;99120.34;6150803;28;20226;-69
2024/02/10 12:47:11;;;;;;;18.83;15.67;;;;;;;8.72;100.00;99118.16;6140366;28;20250;-68
2024/02/10 12:50:32;;;;;;;18.47;15.63;;;;;;;8.82;100.00;99118.84;6139100;28;20239;-69
2024/02/10 12:53:54;;;;;;;19.37;15.50;;;;;;;8.85;100.00;99113.13;6146196;28;20910;-69
2024/02/10 12:57:18;;;;;;;14.30;12.83;;;;;;;8.62;100.00;99107.59;6140211;28;20227;-68
2024/02/10 13:00:40;;;;;;;19.87;14.83;;;;;;;8.59;100.00;99109.78;6110738;28;20236;-69
2024/02/10 13:04:02;;;;;;;17.67;13.73;;;;;;;8.61;100.00;99107.75;6146311;28;20234;-67
2024/02/10 13:07:24;;;;;;;16.93;12.87;;;;;;;8.54;100.00;99107.59;6139758;28;20512;-68
2024/02/10 13:10:46;;;;;;;18.47;11.90;;;;;;;8.66;100.00;99105.38;6140264;28;20226;-68
2024/02/10 13:14:09;;;;;;;14.83;13.30;;;;;;;8.66;100.00;99108.06;6150938;28;20516;-68
2024/02/10 13:17:30;;;;;;;14.77;11.53;;;;;;;8.59;100.00;99109.78;6144569;28;20234;-69
2024/02/10 13:20:52;;;;;;;15.70;11.13;;;;;;;8.56;100.00;99102.88;6136987;28;20234;-68
2024/02/10 13:24:15;;;;;;;19.10;14.33;;;;;;;8.74;100.00;99106.22;6148147;28;20899;-69
2024/02/10 13:27:36;;;;;;;16.70;13.57;;;;;;;8.76;100.00;99103.41;6143158;28;20608;-69
2024/02/10 13:30:57;;;;;;;15.40;12.93;;;;;;;8.71;100.00;99098.53;6141727;28;20291;-68
2024/02/10 13:34:18;;;;;;;14.17;11.97;;;;;;;8.75;100.00;99094.50;6141444;28;20230;-69
2024/02/10 14:03:00;;;;;;;18.53;16.53;;;;;;;8.90;100.00;99080.38;6136227;28;20239;-68
2024/02/10 14:06:32;;;;;;;15.97;14.27;;;;;;;8.65;100.00;99076.88;6129759;28;20511;-68
2024/02/10 14:09:53;;;;;;;17.10;14.43;;;;;;;8.45;100.00;99075.53;6141555;28;20239;-69
2024/02/10 14:13:20;;;;;;;20.67;12.87;;;;;;;8.51;100.00;99077.53;6145941;28;20231;-68
2024/02/10 14:16:43;;;;;;;16.03;13.87;;;;;;;8.41;100.00;99080.38;6138769;28;20652;-69
2024/02/10 14:20:18;;;;;;;22.63;14.90;;;;;;;8.36;100.00;99073.84;6147066;28;20315;-68
2024/02/10 14:23:40;;;;;;;17.73;12.93;;;;;;;8.45;100.00;99080.91;6141620;28;20317;-68
2024/02/10 14:27:05;;;;;;;17.47;13.50;;;;;;;8.41;100.00;99076.84;6147795;28;20239;-69
2024/02/10 14:30:36;;;;;;;16.43;13.80;;;;;;;8.28;100.00;99089.94;6132019;28;20861;-68
2024/02/10 14:34:00;;;;;;;14.93;13.50;;;;;;;8.30;100.00;99088.78;6145556;28;20329;-68
2024/02/10 14:37:30;;;;;;;16.00;11.80;;;;;;;8.39;100.00;99103.88;6141555;28;20250;-70
2024/02/10 14:40:53;;;;;;;17.10;12.80;;;;;;;8.30;100.00;99109.41;6132391;28;20227;-68
2024/02/10 14:44:14;;;;;;;18.17;13.87;;;;;;;8.30;100.00;99110.25;6145044;28;20272;-68
2024/02/10 14:47:36;;;;;;;18.27;12.77;;;;;;;8.46;100.00;99110.25;6120618;28;20363;-66
2024/02/10 14:50:57;;;;;;;22.70;12.90;;;;;;;8.17;100.00;99117.06;6133584;28;22753;-68
2024/02/10 14:54:21;;;;;;;13.43;10.93;;;;;;;8.12;100.00;99125.59;6137012;28;20235;-68
2024/02/10 14:57:42;;;;;;;14.30;11.07;;;;;;;8.15;100.00;99121.75;6125020;28;20592;-68
2024/02/10 15:01:04;;;;;;;12.93;9.37;;;;;;;8.06;100.00;99134.28;6117211;28;20294;-68
2024/02/10 15:04:26;;;;;;;12.93;9.87;;;;;;;8.06;100.00;99131.63;6138030;28;20238;-69
2024/02/10 15:07:55;;;;;;;8.90;7.80;;;;;;;8.07;100.00;99126.06;6129287;28;20231;-69
2024/02/10 15:11:16;;;;;;;12.30;11.03;;;;;;;8.12;100.00;99130.94;6110706;28;20580;-67
2024/02/10 15:14:37;;;;;;;12.60;10.37;;;;;;;8.16;100.00;99126.09;6146612;28;20256;-68
2024/02/10 15:18:00;;;;;;;9.10;8.20;;;;;;;8.04;100.00;99129.09;6127302;28;20353;-67
2024/02/10 15:21:22;;;;;;;10.10;8.97;;;;;;;8.01;100.00;99140.16;6140969;28;20329;-68
2024/02/10 15:24:43;;;;;;;12.20;9.43;;;;;;;8.09;100.00;99144.72;6148645;28;20218;-68
2024/02/10 15:28:15;;;;;;;8.73;7.37;;;;;;;8.07;100.00;99158.28;6134329;28;20609;-68
2024/02/10 15:31:39;;;;;;;10.47;9.37;;;;;;;8.17;100.00;99160.00;6137195;28;20231;-68
2024/02/10 15:35:05;;;;;;;8.47;7.43;;;;;;;8.15;100.00;99153.94;6147241;28;20641;-68
2024/02/10 15:38:28;;;;;;;8.57;7.67;;;;;;;8.09;100.00;99163.50;6148234;28;20231;-69
2024/02/10 15:41:50;;;;;;;11.03;9.80;;;;;;;8.04;100.00;99166.66;6128366;28;20230;-68
2024/02/10 15:45:14;;;;;;;10.43;9.30;;;;;;;8.09;100.00;99163.50;6134289;28;20235;-68
2024/02/10 15:48:35;;;;;;;12.20;9.80;;;;;;;8.04;100.00;99173.88;6144836;28;20242;-68
2024/02/10 15:51:56;;;;;;;12.97;10.27;;;;;;;7.95;100.00;99169.47;6110888;28;20231;-68
2024/02/10 15:55:18;;;;;;;10.77;9.67;;;;;;;8.01;100.00;99177.72;6131204;28;20624;-67